Impacts METAR Board
IDs:

KBWI - Baltimore-Washington, MD, US

Updated at: 1600 UTC 26 Apr 2018
Potential Impact None Slight Moderate High
Time 26/04Z 26/05Z 26/06Z 26/07Z 26/08Z 26/09Z 26/10Z 26/11Z 26/12Z 26/13Z 26/14Z 26/15Z 26/16Z
Temp56 55 55 54 51 49 46 48 51 55 56 59 61
Dewpt56 53 50 46 43 39 39 39 39 40 40 41 42
Altim29.72 29.72 29.72 29.73 29.77 29.80 29.79 29.81 29.82 29.84 29.85 29.86 29.86
VIS10 10 10 10 10 10 10 10 10 10 10 10 10
CIG-- -- -- -- -- -- -- -- -- 250 -- 250 --
CoverFEWFEWCLRCLRFEWSCTSCTSCTSCTBKNSCTBKNFEW
FltCatVFRVFRVFRVFRVFRVFRVFRVFRVFRVFRVFRVFRVFR
WX--------------------------
WDir260280290290280270270280300290260280310
WSpd6 7 6 17 11 9 7 11 13 12 10 12 13
WGst-- -- -- 23 -- -- -- -- 23 19 -- -- --
Raw hourly METARs
KBWI 260354Z 26006KT 10SM FEW050 FEW140 13/13 A2972 RMK AO2 SLP062 T01330133
KBWI 260454Z 28007KT 10SM FEW050 13/12 A2972 RMK AO2 SLP062 T01280117 401890122
KBWI 260554Z 29006KT 10SM CLR 13/10 A2972 RMK AO2 SLP064 60000 T01280100 10172 20128 53002
KBWI 260654Z 29017G23KT 10SM CLR 12/08 A2973 RMK AO2 SLP067 T01220078
KBWI 260754Z 28011KT 10SM FEW250 11/06 A2977 RMK AO2 SLP080 T01060061
KBWI 260854Z 27009KT 10SM SCT250 09/04 A2980 RMK AO2 SLP091 T00940039 53027
KBWI 260954Z 27007KT 10SM FEW050 SCT250 08/04 A2979 RMK AO2 SLP087 T00780039
KBWI 261054Z 28011KT 10SM FEW160 SCT250 09/04 A2981 RMK AO2 SLP093 T00890039
KBWI 261154Z 30013G23KT 10SM FEW160 SCT250 11/04 A2982 RMK AO2 SLP098 70001 T01060039 10133 20072 53006
KBWI 261254Z 29012G19KT 10SM FEW160 BKN250 13/04 A2984 RMK AO2 SLP104 T01280044
KBWI 261354Z 26010KT 10SM SCT150 SCT250 13/04 A2985 RMK AO2 SLP108 T01330044
KBWI 261454Z 28012KT 10SM SCT150 BKN250 15/05 A2986 RMK AO2 WSHFT 1421 SLP111 T01500050 51013 $
KBWI 261554Z 31013KT 10SM FEW002 FEW160 FEW250 16/06 A2986 RMK AO2 SLP111 FU FEW002 FU PLUME S DRFTG SE T01610056 $



Page loaded:  16:55 UTC  |   09:55 AM Pacific  |   10:55 AM Mountain  |   11:55 AM Central  |   12:55 PM Eastern

 

ADVISORIES

FORECASTS

FORECASTS

OBSERVATIONS

USER TOOLS

ABOUT US